M I D A S
Marine Information and Data Acquisition System
Tripno 1616 of the Zeeleeuw from 2008-11-26 07:43:14 to 2008-11-26 14:49:38
Back to CruiseResearch ActivitiesStationsMapUnderway DataData graphs

EquipmentUnitsComment
TimeDGPSUTC
LatitudeDGPSDM.mWGS84
LongitudeDGPSDM.mWGS84
TemperatureSBE03/SBE38deg celciusITS90
ConductivitySBE21S/mITS90
SalinitySBE21 Practical Salinity Units
ChlorophylAChelsea fluorimeterg/lCalibrated in Aceton
Missing or incorrect values are displayed as -999
Sea surface data collected by the RV Zeeleeuw from 2008-11-26 07:02:40 to 2008-11-26 14:51:00
Time Latitude Longitude Temperature Conductivity Salinity ChlorophylA
2008-11-26 07:03:45 51°13.626 2°56.049 -999 0.074213 0.403222 -0.826448
2008-11-26 07:04:45 51°13.625 2°56.049 -999 0.074213 0.403215 -0.826448
2008-11-26 07:05:45 51°13.625 2°56.049 -999 0.074213 0.403215 -0.826448
2008-11-26 07:06:45 51°13.625 2°56.049 -999 0.074213 0.403215 -0.826448
2008-11-26 07:07:45 51°13.625 2°56.049 -999 0.074213 0.403208 -0.826448
2008-11-26 07:08:45 51°13.624 2°56.049 -999 0.074213 0.403193 -0.826448
2008-11-26 07:09:45 51°13.623 2°56.049 -999 0.074213 0.403186 -0.826448
2008-11-26 07:10:45 51°13.623 2°56.049 -999 0.074213 0.403179 -0.826448
2008-11-26 07:11:45 51°13.623 2°56.049 -999 0.074213 0.403172 -0.826448
2008-11-26 07:12:45 51°13.623 2°56.048 -999 0.074213 0.403151 -0.826448
2008-11-26 07:13:45 51°13.623 2°56.048 -999 0.074213 0.403144 -0.826448
2008-11-26 07:14:44 51°13.624 2°56.048 -999 0.074213 0.403137 -0.826448
2008-11-26 07:15:43 51°13.625 2°56.048 -999 0.074213 0.403123 -0.826448
2008-11-26 07:16:43 51°13.626 2°56.048 -999 0.074213 0.403102 -0.826448
2008-11-26 07:17:43 51°13.626 2°56.048 -999 0.074315 0.403672 -0.826448
2008-11-26 07:18:43 51°13.625 2°56.048 -999 0.074315 0.403665 -0.826448
2008-11-26 07:19:43 51°13.625 2°56.049 -999 0.074315 0.403651 -0.826448
2008-11-26 07:20:44 51°13.624 2°56.048 -999 0.074315 0.403644 -0.826448
2008-11-26 07:21:44 51°13.625 2°56.048 -999 0.074315 0.403637 -0.826448
2008-11-26 07:22:44 51°13.623 2°56.048 -999 0.074315 0.40363 -0.826448
2008-11-26 07:23:44 51°13.623 2°56.047 -999 0.074315 0.403616 -0.826448
2008-11-26 07:24:44 51°13.623 2°56.047 -999 0.074315 0.403609 -0.826448
2008-11-26 07:25:44 51°13.625 2°56.047 -999 0.074315 0.403595 -0.826448
2008-11-26 07:26:44 51°13.623 2°56.046 -999 0.074315 0.403595 -0.826448
2008-11-26 07:27:45 51°13.623 2°56.047 -999 0.074315 0.403581 -0.826448
2008-11-26 07:28:45 51°13.622 2°56.046 -999 0.074315 0.403574 -0.826448
2008-11-26 07:29:45 51°13.625 2°56.047 -999 0.074315 0.403566 -0.826448
2008-11-26 07:30:44 51°13.623 2°56.048 -999 0.074315 0.403552 -0.826448
2008-11-26 07:31:45 51°13.625 2°56.048 -999 0.074315 0.403545 -0.826448
2008-11-26 07:32:45 51°13.625 2°56.048 -999 0.074315 0.403531 -0.826448
2008-11-26 07:33:45 51°13.624 2°56.048 -999 0.074315 0.403524 -0.826448
2008-11-26 07:34:45 51°13.624 2°56.048 -999 0.074315 0.40351 -0.826448
2008-11-26 07:35:45 51°13.623 2°56.047 -999 0.074315 0.403496 -0.826448
2008-11-26 07:36:45 51°13.624 2°56.047 -999 0.074315 0.403482 -0.826448
2008-11-26 07:37:44 51°13.624 2°56.046 -999 0.074315 0.403482 -0.826448
2008-11-26 07:38:45 51°13.624 2°56.046 -999 0.074315 0.403468 -0.826448
2008-11-26 07:39:44 51°13.625 2°56.047 -999 0.074315 0.403453 -0.826448
2008-11-26 07:40:45 51°13.625 2°56.047 -999 0.074418 0.404024 -0.826448
2008-11-26 07:41:44 51°13.625 2°56.047 -999 0.074418 0.404017 -0.826448
2008-11-26 07:42:45 51°13.622 2°56.047 -999 0.074418 0.40401 -0.826448
2008-11-26 07:43:45 51°13.624 2°56.048 -999 0.074418 0.404003 -0.826448
2008-11-26 07:44:45 51°13.624 2°56.047 -999 0.074418 0.403996 -0.826448
2008-11-26 07:45:45 51°13.623 2°56.047 -999 0.074418 0.403982 -0.826448
2008-11-26 07:46:45 51°13.628 2°56.027 -999 0.074418 0.403982 -0.791624
2008-11-26 07:47:45 51°13.652 2°55.932 -999 0.074418 0.403982 -0.826448
2008-11-26 07:48:45 51°13.68 2°55.837 -999 0.074418 0.403946 -0.826448
2008-11-26 07:49:45 51°13.7 2°55.753 -999 0.074418 0.403946 -0.826448
2008-11-26 07:50:45 51°13.698 2°55.714 -999 0.074418 0.403932 -0.826448
2008-11-26 07:51:44 51°13.727 2°55.729 -999 0.074418 0.403946 -0.791624
2008-11-26 07:52:44 51°13.819 2°55.646 -999 0.074418 0.403932 -0.791624
2008-11-26 07:53:44 51°13.946 2°55.543 -999 0.074418 0.403946 -0.791624
2008-11-26 07:54:44 51°14.078 2°55.444 -999 0.074418 0.403946 -0.791624
2008-11-26 07:55:44 51°14.206 2°55.329 -999 0.074418 0.40396 -0.791624
2008-11-26 07:56:42 51°14.317 2°55.161 -999 0.074418 0.40396 -0.791624
2008-11-26 07:57:41 51°14.435 2°54.969 -999 0.074418 0.403975 -0.7568
2008-11-26 07:58:41 51°14.579 2°54.786 -999 0.074418 0.403982 -0.791624
2008-11-26 07:59:41 51°14.748 2°54.642 -999 0.074418 0.40401 -0.791624
2008-11-26 08:00:41 51°14.919 2°54.491 -999 0.074418 0.404017 -0.791624
2008-11-26 08:01:41 51°15.084 2°54.328 -999 0.074418 0.404045 -0.7568
2008-11-26 08:02:41 51°15.245 2°54.155 -999 0.074418 0.404066 -0.791624
2008-11-26 08:03:41 51°15.408 2°53.986 -999 0.074521 0.404658 -0.791624
2008-11-26 08:04:41 51°15.571 2°53.813 -999 0.074521 0.404666 -0.791624
2008-11-26 08:05:41 51°15.734 2°53.647 -999 0.074521 0.404694 -0.791624
2008-11-26 08:06:41 51°15.899 2°53.487 -999 0.074521 0.404708 -0.791624
2008-11-26 08:07:41 51°16.066 2°53.331 -999 0.074521 0.404729 -0.791624
2008-11-26 08:08:41 51°16.233 2°53.177 -999 0.074521 0.404758 -0.7568
2008-11-26 08:09:41 51°16.398 2°53.026 -999 0.074521 0.404793 -0.7568
2008-11-26 08:10:41 51°16.567 2°52.88 -999 0.074521 0.404821 -0.7568
2008-11-26 08:11:41 51°16.74 2°52.748 -999 0.074521 0.40485 -0.791624
2008-11-26 08:12:41 51°16.905 2°52.609 -999 0.074521 0.404885 -0.791624
2008-11-26 08:13:41 51°17.065 2°52.471 -999 0.074521 0.404921 -0.791624
2008-11-26 08:14:41 51°17.228 2°52.342 -999 0.074521 0.40497 -0.7568
2008-11-26 08:15:41 51°17.398 2°52.243 -999 0.074521 0.404992 -0.826448
2008-11-26 08:16:41 51°17.577 2°52.197 -999 0.074521 0.405034 -0.791624
2008-11-26 08:17:41 51°17.759 2°52.166 -999 0.074521 0.405077 -0.791624
2008-11-26 08:18:41 51°17.937 2°52.132 -999 0.074521 0.405134 -0.791624
2008-11-26 08:19:41 51°18.114 2°52.096 -999 0.074521 0.405176 -0.791624
2008-11-26 08:20:41 51°18.291 2°52.066 -999 0.074521 0.405226 -0.791624
2008-11-26 08:21:41 51°18.472 2°52.037 -999 0.074521 0.40529 -0.7568
2008-11-26 08:22:41 51°18.653 2°51.998 -999 0.074521 0.405347 -0.791624
2008-11-26 08:23:41 51°18.836 2°51.961 -999 0.074521 0.405425 -0.791624
2008-11-26 08:24:41 51°19.02 2°51.927 -999 0.074521 0.405504 -0.791624
2008-11-26 08:25:41 51°19.203 2°51.881 -999 0.074521 0.405561 -0.791624
2008-11-26 08:26:41 51°19.384 2°51.84 -999 0.074521 0.405625 -0.791624
2008-11-26 08:27:41 51°19.565 2°51.8 -999 0.074521 0.405682 -0.791624
2008-11-26 08:28:41 51°19.747 2°51.761 -999 0.074521 0.405753 -0.7568
2008-11-26 08:29:41 51°19.932 2°51.738 -999 0.074521 0.405817 -0.7568
2008-11-26 08:30:41 51°20.119 2°51.716 -999 0.074521 0.405881 -0.7568
2008-11-26 08:31:41 51°20.307 2°51.698 -999 0.074521 0.405931 -0.791624
2008-11-26 08:32:41 51°20.496 2°51.674 -999 0.074521 0.406003 -0.791624
2008-11-26 08:33:41 51°20.683 2°51.647 -999 0.074521 0.406067 -0.7568
2008-11-26 08:34:41 51°20.87 2°51.621 -999 0.074521 0.406124 -0.791624
2008-11-26 08:35:41 51°21.055 2°51.6 -999 0.074521 0.406189 -0.7568
2008-11-26 08:36:41 51°21.243 2°51.576 -999 0.074521 0.40626 -0.791624
2008-11-26 08:37:41 51°21.429 2°51.55 -999 0.074521 0.406324 -0.791624
2008-11-26 08:38:41 51°21.619 2°51.527 -999 0.074521 0.406382 -0.791624
2008-11-26 08:39:41 51°21.807 2°51.503 -999 0.074521 0.40646 -0.7568
2008-11-26 08:40:41 51°21.994 2°51.47 -999 0.074521 0.406525 -0.7568
2008-11-26 08:41:41 51°22.182 2°51.44 -999 0.074521 0.406596 -0.791624
2008-11-26 08:42:41 51°22.364 2°51.405 -999 0.074521 0.406683 -0.7568
2008-11-26 08:43:41 51°22.55 2°51.374 -999 0.074521 0.406761 -0.7568
2008-11-26 08:44:41 51°22.732 2°51.345 -999 0.074418 0.406238 -0.791624
2008-11-26 08:45:41 51°22.921 2°51.318 -999 0.074418 0.406295 -0.7568
2008-11-26 08:46:41 51°23.106 2°51.288 -999 0.074418 0.406388 -0.791624
2008-11-26 08:47:41 51°23.29 2°51.26 -999 0.074418 0.40651 -0.7568
2008-11-26 08:48:41 51°23.472 2°51.231 -999 0.074418 0.406596 -0.7568
2008-11-26 08:49:41 51°23.656 2°51.201 -999 0.074418 0.406668 -0.7568
2008-11-26 08:50:41 51°23.838 2°51.173 -999 0.074418 0.406776 -0.7568
2008-11-26 08:51:41 51°24.019 2°51.14 -999 0.074418 0.406891 -0.721976
2008-11-26 08:52:41 51°24.202 2°51.107 -999 0.074418 0.406941 -0.7568
2008-11-26 08:53:41 51°24.387 2°51.075 -999 0.074418 0.407049 -0.7568
2008-11-26 08:54:41 51°24.57 2°51.042 -999 0.074418 0.407143 -0.7568
2008-11-26 08:55:41 51°24.755 2°51.009 -999 0.074418 0.407258 -0.7568
2008-11-26 08:56:41 51°24.936 2°50.974 -999 0.074521 0.407891 -0.7568
2008-11-26 08:57:41 51°25.119 2°50.944 -999 0.074521 0.408007 -0.7568
2008-11-26 08:58:41 51°25.304 2°50.913 -999 0.074521 0.408072 -0.721976
2008-11-26 08:59:41 51°25.487 2°50.884 -999 0.074521 0.408158 -0.7568
2008-11-26 09:00:41 51°25.67 2°50.857 -999 0.074624 0.408843 -0.7568
2008-11-26 09:01:41 51°25.853 2°50.833 -999 0.074624 0.408923 -0.7568
2008-11-26 09:02:41 51°26.036 2°50.812 -999 0.074624 0.409024 -0.721976
2008-11-26 09:03:41 51°26.22 2°50.787 -999 0.074624 0.409147 -0.791624
2008-11-26 09:04:41 51°26.403 2°50.762 -999 0.074727 0.409818 -0.7568
2008-11-26 09:05:41 51°26.589 2°50.74 -999 0.074727 0.409935 -0.791624
2008-11-26 09:06:41 51°26.77 2°50.717 -999 0.074727 0.410037 -0.7568
2008-11-26 09:07:41 51°26.955 2°50.692 -999 0.074727 0.410146 -0.7568
2008-11-26 09:08:41 51°27.138 2°50.667 -999 0.07483 0.410825 -0.721976
2008-11-26 09:09:41 51°27.318 2°50.641 -999 0.07483 0.410964 -0.721976
2008-11-26 09:10:41 51°27.499 2°50.604 -999 0.07483 0.411081 -0.7568
2008-11-26 09:11:41 51°27.683 2°50.575 -999 0.07483 0.411176 -0.7568
2008-11-26 09:12:41 51°27.868 2°50.551 -999 0.07483 0.411308 -0.721976
2008-11-26 09:13:41 51°28.052 2°50.524 -999 0.074933 0.411995 -0.7568
2008-11-26 09:14:41 51°28.238 2°50.499 -999 0.074933 0.412142 -0.7568
2008-11-26 09:15:41 51°28.425 2°50.477 -999 0.074933 0.412282 -0.7568
2008-11-26 09:16:41 51°28.611 2°50.457 -999 0.074933 0.412377 -0.7568
2008-11-26 09:17:41 51°28.796 2°50.447 -999 0.074933 0.41251 -0.7568
2008-11-26 09:18:41 51°28.969 2°50.545 -999 0.074933 0.412657 -0.7568
2008-11-26 09:19:41 51°29.137 2°50.687 -999 0.075036 0.413339 -0.7568
2008-11-26 09:20:41 51°29.285 2°50.883 -999 0.075036 0.413494 -0.7568
2008-11-26 09:21:41 51°29.424 2°51.101 -999 0.075036 0.413605 -0.721976
2008-11-26 09:22:41 51°29.556 2°51.327 -999 0.075036 0.413694 -0.7568
2008-11-26 09:23:41 51°29.67 2°51.582 -999 0.075036 0.413775 -0.7568
2008-11-26 09:24:41 51°29.785 2°51.837 -999 0.075036 0.413893 -0.7568
2008-11-26 09:25:41 51°29.898 2°52.094 -999 0.075036 0.414004 -0.721976
2008-11-26 09:26:41 51°30.004 2°52.363 -999 0.075036 0.414101 -0.721976
2008-11-26 09:27:41 51°30.106 2°52.638 -999 0.075139 0.414763 -0.7568
2008-11-26 09:28:41 51°30.18 2°52.927 -999 0.075036 0.414256 -0.721976
2008-11-26 09:29:41 51°30.246 2°53.214 -999 0.075036 0.414353 -0.7568
2008-11-26 09:30:41 51°30.313 2°53.504 -999 0.075036 0.414383 -0.721976
2008-11-26 09:31:41 51°30.384 2°53.79 -999 0.075036 0.414412 -0.7568
2008-11-26 09:32:41 51°30.453 2°54.075 -999 0.075036 0.414457 -0.721976
2008-11-26 09:33:41 51°30.523 2°54.361 -999 0.075036 0.414531 -0.721976
2008-11-26 09:34:41 51°30.593 2°54.645 -999 0.075036 0.41462 -0.7568
2008-11-26 09:35:41 51°30.663 2°54.93 -999 0.075036 0.41468 -0.7568
2008-11-26 09:36:41 51°30.733 2°55.215 -999 0.075036 0.414739 -0.721976
2008-11-26 09:37:41 51°30.802 2°55.499 -999 0.075036 0.414806 -0.7568
2008-11-26 09:38:41 51°30.872 2°55.785 -999 0.075036 0.414843 -0.7568
2008-11-26 09:39:41 51°30.943 2°56.071 -999 0.074933 0.414344 -0.7568
2008-11-26 09:40:41 51°31.014 2°56.356 -999 0.074933 0.414351 -0.7568
2008-11-26 09:41:41 51°31.085 2°56.642 -999 0.074933 0.414411 -0.721976
2008-11-26 09:42:41 51°31.157 2°56.933 -999 0.074933 0.414492 -0.721976
2008-11-26 09:43:41 51°31.26 2°57.188 -999 0.074933 0.414537 -0.687152
2008-11-26 09:44:41 51°31.394 2°57.407 -999 0.074933 0.414582 -0.7568
2008-11-26 09:45:41 51°31.527 2°57.627 -999 0.074933 0.414656 -0.7568
2008-11-26 09:46:41 51°31.66 2°57.849 -999 0.07483 0.414112 -0.721976
2008-11-26 09:47:41 51°31.79 2°58.067 -999 0.07483 0.414208 -0.7568
2008-11-26 09:48:41 51°31.92 2°58.291 -999 0.07483 0.414223 -0.7568
2008-11-26 09:49:41 51°32.052 2°58.513 -999 0.07483 0.414327 -0.721976
2008-11-26 09:50:41 51°32.195 2°58.716 -999 0.07483 0.41438 -0.721976
2008-11-26 09:51:41 51°32.338 2°58.915 -999 0.07483 0.414424 -0.7568
2008-11-26 09:52:41 51°32.486 2°59.109 -999 0.074727 0.413931 -0.721976
2008-11-26 09:53:41 51°32.649 2°59.222 -999 0.074727 0.413961 -0.687152
2008-11-26 09:54:41 51°32.786 2°59.092 -999 0.074727 0.414013 -0.721976
2008-11-26 09:55:41 51°32.892 2°58.877 -999 0.074727 0.414065 -0.7568
2008-11-26 09:56:41 51°33.004 2°58.659 -999 0.074727 0.41411 -0.7568
2008-11-26 09:57:41 51°33.117 2°58.432 -999 0.074727 0.414214 -0.7568
2008-11-26 09:58:41 51°33.238 2°58.205 -999 0.074624 0.413691 -0.721976
2008-11-26 09:59:41 51°33.357 2°57.974 -999 0.074624 0.413795 -0.791624
2008-11-26 10:00:41 51°33.479 2°57.741 -999 0.074624 0.413922 -0.721976
2008-11-26 10:01:41 51°33.602 2°57.507 -999 0.074624 0.413997 -0.721976
2008-11-26 10:02:41 51°33.725 2°57.272 -999 0.074522 0.413503 -0.7568
2008-11-26 10:03:41 51°33.841 2°57.027 -999 0.074522 0.413607 -0.7568
2008-11-26 10:04:41 51°33.947 2°56.771 -999 0.074522 0.413674 -0.721976
2008-11-26 10:05:41 51°34.053 2°56.513 -999 0.074419 0.413173 -0.7568
2008-11-26 10:06:41 51°34.159 2°56.258 -999 0.074419 0.41324 -0.721976
2008-11-26 10:07:41 51°34.265 2°56 -999 0.074419 0.413337 -0.687152
2008-11-26 10:08:41 51°34.259 2°55.727 -999 0.074316 0.412842 -0.652328
2008-11-26 10:09:41 51°34.149 2°55.475 -999 0.074316 0.412917 -0.7568
2008-11-26 10:10:41 51°34.05 2°55.208 -999 0.074316 0.413148 -0.721976
2008-11-26 10:11:41 51°33.951 2°54.945 -999 0.074213 0.412548 -0.721976
2008-11-26 10:12:41 51°33.845 2°54.689 -999 0.074213 0.41266 -0.7568
2008-11-26 10:13:41 51°33.74 2°54.43 -999 0.074213 0.412847 -0.7568
2008-11-26 10:14:41 51°33.633 2°54.176 -999 0.07411 0.412381 -0.7568
2008-11-26 10:15:41 51°33.532 2°53.918 -999 0.07411 0.412463 -0.7568
2008-11-26 10:16:41 51°33.428 2°53.661 -999 0.074007 0.412184 -0.7568
2008-11-26 10:17:41 51°33.325 2°53.406 -999 0.074007 0.412296 -0.721976
2008-11-26 10:18:41 51°33.224 2°53.148 -999 0.074007 0.412446 -0.721976
2008-11-26 10:19:41 51°33.121 2°52.893 -999 0.073904 0.412047 -0.7568
2008-11-26 10:20:41 51°33.01 2°52.645 -999 0.073904 0.412249 -0.721976
2008-11-26 10:21:41 51°32.9 2°52.399 -999 0.073801 0.411819 -0.7568
2008-11-26 10:22:41 51°32.795 2°52.149 -999 0.073801 0.412044 -0.7568
2008-11-26 10:23:41 51°32.689 2°51.9 -999 0.073698 0.411584 -0.721976
2008-11-26 10:24:41 51°32.583 2°51.651 -999 0.073698 0.411756 -0.7568
2008-11-26 10:25:41 51°32.476 2°51.401 -999 0.073595 0.411273 -0.7568
2008-11-26 10:26:41 51°32.371 2°51.153 -999 0.073595 0.411535 -0.7568
2008-11-26 10:27:41 51°32.265 2°50.907 -999 0.073595 0.411685 -0.7568
2008-11-26 10:28:41 51°32.16 2°50.66 -999 0.073492 0.411277 -0.7568
2008-11-26 10:29:41 51°32.057 2°50.414 -999 0.073492 0.411352 -0.7568
2008-11-26 10:30:41 51°31.953 2°50.166 -999 0.07339 0.411011 -0.791624
2008-11-26 10:31:41 51°31.85 2°49.92 -999 0.07339 0.411236 -0.7568
2008-11-26 10:32:41 51°31.747 2°49.674 -999 0.07339 0.411499 -0.687152
2008-11-26 10:33:41 51°31.645 2°49.43 -999 0.07339 0.411552 -0.721976
2008-11-26 10:34:41 51°31.543 2°49.185 -999 0.073287 0.411263 -0.7568
2008-11-26 10:35:41 51°31.441 2°48.94 -999 0.073287 0.411459 -0.721976
2008-11-26 10:36:41 51°31.339 2°48.693 -999 0.073184 0.411072 -0.721976
2008-11-26 10:37:41 51°31.236 2°48.45 -999 0.073184 0.411313 -0.7568
2008-11-26 10:38:41 51°31.137 2°48.205 -999 0.073184 0.411426 -0.7568
2008-11-26 10:39:41 51°31.037 2°47.963 -999 0.073081 0.411084 -0.687152
2008-11-26 10:40:41 51°31 2°47.689 -999 0.073081 0.411303 -0.7568
2008-11-26 10:41:41 51°31.057 2°47.408 -999 0.073081 0.411523 -0.721976
2008-11-26 10:42:41 51°31.181 2°47.184 -999 0.072978 0.411066 -0.721976
2008-11-26 10:43:41 51°31.367 2°47.075 -999 0.072978 0.411384 -0.7568
2008-11-26 10:44:41 51°31.568 2°47.02 -999 0.072978 0.411536 -0.721976
2008-11-26 10:45:41 51°31.75 2°47.009 -999 0.072978 0.411619 -0.721976
2008-11-26 10:46:41 51°31.928 2°47.013 -999 0.072978 0.411832 -0.687152
2008-11-26 10:47:41 51°32.109 2°47.009 -999 0.072875 0.411322 -0.721976
2008-11-26 10:48:41 51°32.286 2°47.001 -999 0.072875 0.411443 -0.721976
2008-11-26 10:49:41 51°32.463 2°46.992 -999 0.072875 0.411542 -0.721976
2008-11-26 10:50:41 51°32.641 2°46.98 -999 0.072875 0.411671 -0.721976
2008-11-26 10:51:41 51°32.822 2°46.967 -999 0.072875 0.411793 -0.721976
2008-11-26 10:52:41 51°33.005 2°46.95 -999 0.072772 0.411297 -0.687152
2008-11-26 10:53:41 51°33.187 2°46.931 -999 0.072772 0.411472 -0.7568
2008-11-26 10:54:41 51°33.368 2°46.912 -999 0.072772 0.411609 -0.721976
2008-11-26 10:55:41 51°33.546 2°46.896 -999 0.072772 0.411739 -0.7568
2008-11-26 10:56:41 51°33.723 2°46.879 -999 0.072669 0.411334 -0.721976
2008-11-26 10:57:41 51°33.901 2°46.86 -999 0.072669 0.411426 -0.721976
2008-11-26 10:58:41 51°34.085 2°46.857 -999 0.072669 0.411555 -0.7568
2008-11-26 10:59:41 51°34.274 2°46.855 -999 0.072669 0.4117 -0.721976
2008-11-26 11:00:41 51°34.458 2°46.854 -999 0.072566 0.41115 -0.721976
2008-11-26 11:01:41 51°34.649 2°46.865 -999 0.072566 0.411265 -0.7568
2008-11-26 11:02:41 51°34.839 2°46.923 -999 0.072566 0.411387 -0.7568
2008-11-26 11:03:41 51°35.027 2°46.991 -999 0.072566 0.411547 -0.721976
2008-11-26 11:04:41 51°35.217 2°47.058 -999 0.072464 0.411141 -0.721976
2008-11-26 11:05:41 51°35.402 2°47.13 -999 0.072464 0.411225 -0.7568
2008-11-26 11:06:41 51°35.583 2°47.24 -999 0.072464 0.411409 -0.7568
2008-11-26 11:07:41 51°35.759 2°47.389 -999 0.072464 0.411501 -0.7568
2008-11-26 11:08:41 51°35.925 2°47.538 -999 0.072361 0.411003 -0.721976
2008-11-26 11:09:41 51°36.09 2°47.682 -999 0.072361 0.411118 -0.7568
2008-11-26 11:10:41 51°36.255 2°47.824 -999 0.072361 0.411209 -0.721976
2008-11-26 11:11:41 51°36.421 2°47.965 -999 0.072361 0.411324 -0.7568
2008-11-26 11:12:41 51°36.588 2°48.106 -999 0.072361 0.411432 -0.721976
2008-11-26 11:13:41 51°36.754 2°48.247 -999 0.072258 0.410941 -0.7568
2008-11-26 11:14:41 51°36.92 2°48.39 -999 0.072258 0.411017 -0.7568
2008-11-26 11:15:41 51°37.089 2°48.529 -999 0.072258 0.411117 -0.721976
2008-11-26 11:16:41 51°37.256 2°48.67 -999 0.072258 0.411209 -0.721976
2008-11-26 11:17:41 51°37.421 2°48.808 -999 0.072155 0.410695 -0.721976
2008-11-26 11:18:41 51°37.588 2°48.944 -999 0.072155 0.410817 -0.7568
2008-11-26 11:19:41 51°37.755 2°49.081 -999 0.072155 0.410902 -0.721976
2008-11-26 11:20:41 51°37.923 2°49.218 -999 0.072155 0.411017 -0.721976
2008-11-26 11:21:41 51°38.086 2°49.354 -999 0.072155 0.411101 -0.721976
2008-11-26 11:22:41 51°38.25 2°49.488 -999 0.072052 0.410648 -0.7568
2008-11-26 11:23:41 51°38.416 2°49.622 -999 0.072052 0.410702 -0.721976
2008-11-26 11:24:41 51°38.581 2°49.755 -999 0.072052 0.410817 -0.721976
2008-11-26 11:25:41 51°38.748 2°49.889 -999 0.072052 0.410871 -0.721976
2008-11-26 11:26:41 51°38.915 2°50.024 -999 0.072052 0.411001 -0.721976
2008-11-26 11:27:41 51°39.083 2°50.159 -999 0.072052 0.411124 -0.721976
2008-11-26 11:28:41 51°39.25 2°50.295 -999 0.071949 0.41057 -0.7568
2008-11-26 11:29:41 51°39.414 2°50.429 -999 0.071949 0.41067 -0.7568
2008-11-26 11:30:41 51°39.582 2°50.564 -999 0.071949 0.410786 -0.7568
2008-11-26 11:31:41 51°39.747 2°50.707 -999 0.071949 0.410847 -0.791624
2008-11-26 11:32:41 51°39.855 2°50.953 -999 0.071949 0.411009 -0.791624
2008-11-26 11:33:41 51°39.815 2°51.204 -999 0.071846 0.41047 -0.791624
2008-11-26 11:34:41 51°39.673 2°51.37 -999 0.071846 0.41057 -0.791624
2008-11-26 11:35:41 51°39.567 2°51.64 -999 0.071846 0.410686 -0.7568
2008-11-26 11:36:41 51°39.441 2°51.889 -999 0.071846 0.410763 -0.721976
2008-11-26 11:37:41 51°39.287 2°52.094 -999 0.071743 0.410308 -0.7568
2008-11-26 11:38:41 51°39.133 2°52.292 -999 0.071743 0.410292 -0.7568
2008-11-26 11:39:41 51°38.986 2°52.493 -999 0.071743 0.410362 -0.791624
2008-11-26 11:40:41 51°38.84 2°52.699 -999 0.071743 0.410523 -0.7568
2008-11-26 11:41:41 51°38.697 2°52.902 -999 0.071743 0.410554 -0.7568
2008-11-26 11:42:41 51°38.554 2°53.11 -999 0.071743 0.410647 -0.7568
2008-11-26 11:43:41 51°38.409 2°53.319 -999 0.07164 0.410191 -0.721976
2008-11-26 11:44:41 51°38.266 2°53.527 -999 0.07164 0.410238 -0.791624
2008-11-26 11:45:41 51°38.123 2°53.735 -999 0.07164 0.410354 -0.721976
2008-11-26 11:46:41 51°37.982 2°53.943 -999 0.07164 0.410516 -0.7568
2008-11-26 11:47:41 51°37.84 2°54.149 -999 0.07164 0.410462 -0.7568
2008-11-26 11:48:41 51°37.695 2°54.355 -999 0.07164 0.410554 -0.791624
2008-11-26 11:49:41 51°37.552 2°54.557 -999 0.071537 0.410083 -0.791624
2008-11-26 11:50:41 51°37.409 2°54.756 -999 0.071537 0.410268 -0.7568
2008-11-26 11:51:41 51°37.248 2°54.768 -999 0.071537 0.410152 -0.791624
2008-11-26 11:52:41 51°37.155 2°54.543 -999 0.071537 0.41023 -0.791624
2008-11-26 11:53:41 51°37.064 2°54.307 -999 0.071537 0.4104 -0.7568
2008-11-26 11:54:41 51°36.972 2°54.072 -999 0.071537 0.410578 -0.791624
2008-11-26 11:55:41 51°36.879 2°53.835 -999 0.071537 0.410671 -0.7568
2008-11-26 11:56:41 51°36.786 2°53.6 -999 0.071537 0.410803 -0.791624
2008-11-26 11:57:41 51°36.69 2°53.367 -999 0.071435 0.410168 -0.7568
2008-11-26 11:58:41 51°36.594 2°53.136 -999 0.071435 0.410377 -0.7568
2008-11-26 11:59:41 51°36.498 2°52.902 -999 0.071435 0.410416 -0.721976
2008-11-26 12:00:41 51°36.405 2°52.667 -999 0.071435 0.410447 -0.7568
2008-11-26 12:01:41 51°36.305 2°52.439 -999 0.071435 0.4104 -0.791624
2008-11-26 12:02:41 51°36.194 2°52.226 -999 0.071435 0.41061 -0.7568
2008-11-26 12:03:41 51°36.082 2°52.011 -999 0.071435 0.410656 -0.791624
2008-11-26 12:04:41 51°35.974 2°51.794 -999 0.071332 0.410114 -0.721976
2008-11-26 12:05:41 51°35.864 2°51.579 -999 0.071332 0.410315 -0.721976
2008-11-26 12:06:41 51°35.756 2°51.363 -999 0.071332 0.410308 -0.721976
2008-11-26 12:07:41 51°35.648 2°51.149 -999 0.071332 0.41037 -0.7568
2008-11-26 12:08:41 51°35.538 2°50.933 -999 0.071332 0.410245 -0.791624
2008-11-26 12:09:41 51°35.404 2°50.784 -999 0.071332 0.410354 -0.7568
2008-11-26 12:10:41 51°35.255 2°50.923 -999 0.071332 0.41044 -0.7568
2008-11-26 12:11:41 51°35.106 2°51.116 -999 0.071332 0.410494 -0.791624
2008-11-26 12:12:41 51°34.949 2°51.308 -999 0.071332 0.410556 -0.791624
2008-11-26 12:13:41 51°34.793 2°51.498 -999 0.071332 0.410665 -0.721976
2008-11-26 12:14:41 51°34.647 2°51.713 -999 0.071332 0.410642 -0.791624
2008-11-26 12:15:41 51°34.505 2°51.943 -999 0.071229 0.410091 -0.791624
2008-11-26 12:16:41 51°34.356 2°52.162 -999 0.071229 0.410176 -0.7568
2008-11-26 12:17:41 51°34.212 2°52.385 -999 0.071229 0.410324 -0.7568
2008-11-26 12:18:41 51°34.064 2°52.607 -999 0.071229 0.410277 -0.791624
2008-11-26 12:19:41 51°33.921 2°52.835 -999 0.071229 0.410332 -0.7568
2008-11-26 12:20:41 51°33.875 2°53.16 -999 0.071229 0.41055 -0.617504
2008-11-26 12:21:41 51°33.986 2°53.449 -999 0.071229 0.410417 -0.7568
2008-11-26 12:22:41 51°34.095 2°53.718 -999 0.071229 0.410487 -0.791624
2008-11-26 12:23:41 51°34.194 2°53.964 -999 0.071229 0.410565 -0.7568
2008-11-26 12:24:41 51°34.294 2°54.213 -999 0.071229 0.410604 -0.791624
2008-11-26 12:25:41 51°34.393 2°54.462 -999 0.071229 0.410651 -0.7568
2008-11-26 12:26:41 51°34.491 2°54.713 -999 0.071229 0.410713 -0.7568
2008-11-26 12:27:41 51°34.588 2°54.963 -999 0.071229 0.410752 -0.721976
2008-11-26 12:28:41 51°34.686 2°55.212 -999 0.071229 0.410822 -0.7568
2008-11-26 12:29:41 51°34.785 2°55.462 -999 0.071229 0.41083 -0.7568
2008-11-26 12:30:41 51°34.883 2°55.712 -999 0.071229 0.410908 -0.7568
2008-11-26 12:31:41 51°34.982 2°55.962 -999 0.071229 0.410932 -0.7568
2008-11-26 12:32:41 51°35.081 2°56.21 -999 0.071229 0.410979 -0.7568
2008-11-26 12:33:41 51°35.18 2°56.46 -999 0.071229 0.410979 -0.791624
2008-11-26 12:34:41 51°35.278 2°56.711 -999 0.071229 0.411072 -0.7568
2008-11-26 12:35:41 51°35.378 2°56.959 -999 0.071229 0.411088 -0.7568
2008-11-26 12:36:41 51°35.476 2°57.208 -999 0.071229 0.411135 -0.791624
2008-11-26 12:37:41 51°35.566 2°57.464 -999 0.071229 0.411174 -0.791624
2008-11-26 12:38:41 51°35.58 2°57.738 -999 0.071126 0.410637 -0.791624
2008-11-26 12:39:41 51°35.496 2°57.959 -999 0.071126 0.410637 -0.7568
2008-11-26 12:40:41 51°35.354 2°58.074 -999 0.071126 0.410676 -0.791624
2008-11-26 12:41:41 51°35.192 2°58.157 -999 0.071126 0.410668 -0.791624
2008-11-26 12:42:41 51°35.022 2°58.256 -999 0.071126 0.410778 -0.826448
2008-11-26 12:43:41 51°34.854 2°58.367 -999 0.071126 0.41077 -0.826448
2008-11-26 12:44:41 51°34.688 2°58.486 -999 0.071126 0.410801 -0.791624
2008-11-26 12:45:41 51°34.526 2°58.613 -999 0.071126 0.410871 -0.791624
2008-11-26 12:46:41 51°34.363 2°58.737 -999 0.071126 0.410965 -0.7568
2008-11-26 12:47:41 51°34.2 2°58.869 -999 0.071126 0.410895 -0.791624
2008-11-26 12:48:41 51°34.038 2°59 -999 0.071126 0.410989 -0.826448
2008-11-26 12:49:41 51°33.875 2°59.117 -999 0.071126 0.410989 -0.791624
2008-11-26 12:50:41 51°33.709 2°59.224 -999 0.071126 0.411036 -0.7568
2008-11-26 12:51:41 51°33.543 2°59.335 -999 0.071126 0.411036 -0.791624
2008-11-26 12:52:41 51°33.379 2°59.439 -999 0.071126 0.411161 -0.7568
2008-11-26 12:53:41 51°33.213 2°59.541 -999 0.071126 0.41113 -0.7568
2008-11-26 12:54:41 51°33.047 2°59.647 -999 0.071126 0.411177 -0.791624
2008-11-26 12:55:41 51°32.872 2°59.7 -999 0.071126 0.411184 -0.826448
2008-11-26 12:56:41 51°32.698 2°59.739 -999 0.071126 0.411208 -0.791624
2008-11-26 12:57:41 51°32.529 2°59.715 -999 0.071126 0.41131 -0.791624
2008-11-26 12:58:41 51°32.364 2°59.672 -999 0.071126 0.411286 -0.826448
2008-11-26 12:59:41 51°32.2 2°59.634 -999 0.071126 0.411341 -0.826448
2008-11-26 13:00:41 51°32.037 2°59.593 -999 0.071126 0.411349 -0.7568
2008-11-26 13:01:41 51°31.875 2°59.542 -999 0.071126 0.411419 -0.7568
2008-11-26 13:02:41 51°31.713 2°59.493 -999 0.071126 0.411451 -0.791624
2008-11-26 13:03:41 51°31.551 2°59.446 -999 0.071126 0.411616 -0.791624
2008-11-26 13:04:41 51°31.388 2°59.398 -999 0.071023 0.410874 -0.791624
2008-11-26 13:05:41 51°31.223 2°59.353 -999 0.071023 0.410897 -0.826448
2008-11-26 13:06:41 51°31.057 2°59.306 -999 0.071023 0.410976 -0.791624
2008-11-26 13:07:41 51°30.892 2°59.257 -999 0.071023 0.410983 -0.791624
2008-11-26 13:08:41 51°30.726 2°59.208 -999 0.071023 0.411038 -0.791624
2008-11-26 13:09:41 51°30.56 2°59.162 -999 0.071023 0.41107 -0.791624
2008-11-26 13:10:41 51°30.396 2°59.111 -999 0.071023 0.411117 -0.791624
2008-11-26 13:11:41 51°30.231 2°59.06 -999 0.071023 0.411172 -0.7568
2008-11-26 13:12:41 51°30.066 2°59.014 -999 0.071023 0.41118 -0.791624
2008-11-26 13:13:41 51°29.903 2°58.967 -999 0.071023 0.41118 -0.791624
2008-11-26 13:14:41 51°29.74 2°58.914 -999 0.071023 0.411187 -0.791624
2008-11-26 13:15:41 51°29.58 2°58.848 -999 0.071023 0.411337 -0.791624
2008-11-26 13:16:41 51°29.42 2°58.781 -999 0.071023 0.411227 -0.826448
2008-11-26 13:17:41 51°29.257 2°58.714 -999 0.071023 0.41125 -0.791624
2008-11-26 13:18:41 51°29.094 2°58.646 -999 0.071023 0.411305 -0.7568
2008-11-26 13:19:41 51°28.931 2°58.581 -999 0.071023 0.411368 -0.791624
2008-11-26 13:20:41 51°28.767 2°58.515 -999 0.071023 0.411407 -0.791624
2008-11-26 13:21:41 51°28.605 2°58.446 -999 0.071023 0.411431 -0.791624
2008-11-26 13:22:41 51°28.443 2°58.375 -999 0.071023 0.41147 -0.7568
2008-11-26 13:23:41 51°28.28 2°58.312 -999 0.071023 0.411509 -0.7568
2008-11-26 13:24:41 51°28.117 2°58.247 -999 0.071023 0.411517 -0.7568
2008-11-26 13:25:41 51°27.955 2°58.179 -999 0.071023 0.411502 -0.826448
2008-11-26 13:26:41 51°27.792 2°58.105 -999 0.071023 0.411541 -0.791624
2008-11-26 13:27:41 51°27.63 2°58.032 -999 0.071023 0.41173 -0.721976
2008-11-26 13:28:41 51°27.468 2°57.96 -999 0.071023 0.411604 -0.791624
2008-11-26 13:29:41 51°27.305 2°57.885 -999 0.071023 0.411643 -0.7568
2008-11-26 13:30:41 51°27.145 2°57.807 -999 0.071023 0.411675 -0.791624
2008-11-26 13:31:41 51°26.984 2°57.728 -999 0.071023 0.411738 -0.791624
2008-11-26 13:32:41 51°26.822 2°57.649 -999 0.071023 0.41173 -0.7568
2008-11-26 13:33:41 51°26.661 2°57.572 -999 0.071023 0.411801 -0.826448
2008-11-26 13:34:41 51°26.501 2°57.499 -999 0.07092 0.411277 -0.791624
2008-11-26 13:35:41 51°26.342 2°57.429 -999 0.07092 0.411293 -0.7568
2008-11-26 13:36:41 51°26.184 2°57.355 -999 0.07092 0.411372 -0.791624
2008-11-26 13:37:41 51°26.027 2°57.286 -999 0.07092 0.411277 -0.791624
2008-11-26 13:38:41 51°25.868 2°57.213 -999 0.07092 0.411206 -0.791624
2008-11-26 13:39:41 51°25.712 2°57.125 -999 0.07092 0.41134 -0.7568
2008-11-26 13:40:41 51°25.559 2°57.023 -999 0.07092 0.411372 -0.791624
2008-11-26 13:41:41 51°25.406 2°56.912 -999 0.07092 0.41134 -0.7568
2008-11-26 13:42:41 51°25.253 2°56.798 -999 0.07092 0.411419 -0.7568
2008-11-26 13:43:41 51°25.097 2°56.69 -999 0.07092 0.411372 -0.791624
2008-11-26 13:44:41 51°24.944 2°56.577 -999 0.07092 0.41145 -0.791624
2008-11-26 13:45:41 51°24.788 2°56.469 -999 0.07092 0.411427 -0.826448
2008-11-26 13:46:41 51°24.635 2°56.361 -999 0.07092 0.411529 -0.791624
2008-11-26 13:47:41 51°24.482 2°56.245 -999 0.07092 0.411632 -0.721976
2008-11-26 13:48:41 51°24.336 2°56.126 -999 0.07092 0.411505 -0.826448
2008-11-26 13:49:41 51°24.192 2°56.003 -999 0.07092 0.411687 -0.721976
2008-11-26 13:50:41 51°24.048 2°55.878 -999 0.07092 0.411624 -0.721976
2008-11-26 13:51:41 51°23.905 2°55.752 -999 0.07092 0.411679 -0.7568
2008-11-26 13:52:41 51°23.761 2°55.627 -999 0.07092 0.41171 -0.7568
2008-11-26 13:53:41 51°23.615 2°55.505 -999 0.07092 0.411639 -0.791624
2008-11-26 13:54:41 51°23.467 2°55.386 -999 0.07092 0.411773 -0.7568
2008-11-26 13:55:41 51°23.315 2°55.272 -999 0.07092 0.411734 -0.721976
2008-11-26 13:56:41 51°23.155 2°55.175 -999 0.07092 0.411671 -0.791624
2008-11-26 13:57:41 51°22.994 2°55.076 -999 0.07092 0.411805 -0.7568
2008-11-26 13:58:41 51°22.833 2°54.978 -999 0.07092 0.411734 -0.791624
2008-11-26 13:59:41 51°22.673 2°54.873 -999 0.07092 0.411773 -0.791624
2008-11-26 14:00:41 51°22.511 2°54.766 -999 0.07092 0.411813 -0.791624
2008-11-26 14:01:41 51°22.346 2°54.659 -999 0.07092 0.41186 -0.826448
2008-11-26 14:02:41 51°22.18 2°54.554 -999 0.07092 0.411837 -0.826448
2008-11-26 14:03:41 51°22.013 2°54.451 -999 0.07092 0.411892 -0.791624
2008-11-26 14:04:41 51°21.845 2°54.35 -999 0.07092 0.411884 -0.7568
2008-11-26 14:05:41 51°21.675 2°54.249 -999 0.07092 0.411923 -0.826448
2008-11-26 14:06:41 51°21.506 2°54.145 -999 0.07092 0.411923 -0.7568
2008-11-26 14:07:41 51°21.336 2°54.043 -999 0.07092 0.411931 -0.826448
2008-11-26 14:08:41 51°21.168 2°53.936 -999 0.07092 0.411963 -0.7568
2008-11-26 14:09:41 51°20.999 2°53.84 -999 0.07092 0.411995 -0.7568
2008-11-26 14:10:41 51°20.831 2°53.748 -999 0.07092 0.411971 -0.791624
2008-11-26 14:11:41 51°20.664 2°53.659 -999 0.07092 0.411971 -0.791624
2008-11-26 14:12:41 51°20.499 2°53.565 -999 0.07092 0.412002 -0.791624
2008-11-26 14:13:41 51°20.333 2°53.467 -999 0.07092 0.41205 -0.7568
2008-11-26 14:14:41 51°20.167 2°53.375 -999 0.07092 0.412042 -0.7568
2008-11-26 14:15:41 51°20.001 2°53.282 -999 0.07092 0.412042 -0.791624
2008-11-26 14:16:41 51°19.832 2°53.185 -999 0.07092 0.41205 -0.791624
2008-11-26 14:17:41 51°19.66 2°53.09 -999 0.07092 0.412074 -0.791624
2008-11-26 14:18:41 51°19.491 2°52.989 -999 0.07092 0.412097 -0.791624
2008-11-26 14:19:41 51°19.316 2°52.904 -999 0.070817 0.411494 -0.791624
2008-11-26 14:20:41 51°19.139 2°52.827 -999 0.07092 0.412113 -0.7568
2008-11-26 14:21:41 51°18.962 2°52.756 -999 0.07092 0.412113 -0.791624
2008-11-26 14:22:41 51°18.789 2°52.681 -999 0.07092 0.412153 -0.791624
2008-11-26 14:23:41 51°18.615 2°52.6 -999 0.070817 0.411557 -0.7568
2008-11-26 14:24:41 51°18.441 2°52.522 -999 0.070817 0.411557 -0.7568
2008-11-26 14:25:41 51°18.265 2°52.459 -999 0.070817 0.411549 -0.791624
2008-11-26 14:26:41 51°18.087 2°52.401 -999 0.070817 0.411604 -0.721976
2008-11-26 14:27:41 51°17.906 2°52.374 -999 0.070817 0.411565 -0.826448
2008-11-26 14:28:41 51°17.725 2°52.356 -999 0.070817 0.411612 -0.826448
2008-11-26 14:29:41 51°17.543 2°52.337 -999 0.070817 0.41162 -0.826448
2008-11-26 14:30:41 51°17.361 2°52.326 -999 0.070817 0.411644 -0.791624
2008-11-26 14:31:41 51°17.177 2°52.328 -999 0.07092 0.412279 -0.791624
2008-11-26 14:32:41 51°16.999 2°52.398 -999 0.070817 0.411699 -0.826448
2008-11-26 14:33:41 51°16.83 2°52.507 -999 0.070817 0.41166 -0.826448
2008-11-26 14:34:41 51°16.674 2°52.662 -999 0.070817 0.411683 -0.826448
2008-11-26 14:35:41 51°16.525 2°52.825 -999 0.070817 0.411715 -0.791624
2008-11-26 14:36:41 51°16.385 2°52.983 -999 0.070817 0.411707 -0.791624
2008-11-26 14:37:41 51°16.241 2°53.136 -999 0.070817 0.411715 -0.826448
2008-11-26 14:38:41 51°16.095 2°53.284 -999 0.070817 0.411739 -0.791624
2008-11-26 14:39:41 51°15.948 2°53.432 -999 0.070817 0.411747 -0.791624
2008-11-26 14:40:41 51°15.801 2°53.579 -999 0.070817 0.411747 -0.7568
2008-11-26 14:41:41 51°15.65 2°53.715 -999 0.070817 0.411747 -0.826448
2008-11-26 14:42:41 51°15.501 2°53.852 -999 0.070817 0.411754 -0.826448
2008-11-26 14:43:41 51°15.352 2°53.997 -999 0.070817 0.41177 -0.826448
2008-11-26 14:44:41 51°15.204 2°54.148 -999 0.070817 0.411786 -0.791624
2008-11-26 14:45:41 51°15.045 2°54.309 -999 0.070817 0.411802 -0.7568
2008-11-26 14:46:41 51°14.876 2°54.471 -999 0.070817 0.411826 -0.7568
2008-11-26 14:47:41 51°14.706 2°54.64 -999 0.070817 0.411826 -0.826448
2008-11-26 14:48:41 51°14.541 2°54.812 -999 0.070817 0.411841 -0.791624
2008-11-26 14:49:41 51°14.396 2°55.026 -999 0.070817 0.411857 -0.826448
2008-11-26 14:50:41 51°14.262 2°55.258 -999 0.070817 0.411873 -0.826448